Time;durP1;ratioP1;P1;durP2;ratioP2;P2;SDS_P1;SDS_P2;PMS_P1;PMS_P2;Temp;Humidity;BMP_temperature;BMP_pressure;BME280_temperature;BME280_humidity;BME280_pressure;Samples;Min_cycle;Max_cycle;Signal;HPM_P1;HPM_P2
2024/03/10 00:00:14;;;;;;;3.17;2.40;;;22.40;57.40;;;;;;5074061;28;20498;-90
2024/03/10 00:02:43;;;;;;;3.90;2.63;;;22.40;57.50;;;;;;5074438;28;20845;-83
2024/03/10 00:05:12;;;;;;;2.87;2.57;;;22.40;57.40;;;;;;5074340;28;20954;-83
2024/03/10 00:07:38;;;;;;;3.80;3.27;;;22.40;57.40;;;;;;5074546;28;20435;-90
2024/03/10 00:10:07;;;;;;;2.80;2.50;;;22.40;57.50;;;;;;5074375;28;20452;-83
2024/03/10 00:12:33;;;;;;;2.60;2.23;;;22.40;57.50;;;;;;5074442;28;20441;-83
2024/03/10 00:15:00;;;;;;;3.60;2.53;;;22.40;57.40;;;;;;5081154;28;20492;-82
2024/03/10 00:17:27;;;;;;;3.17;2.57;;;22.40;57.40;;;;;;5081186;28;20445;-83
2024/03/10 00:19:55;;;;;;;2.67;2.47;;;22.40;57.50;;;;;;5084146;28;20447;-80
2024/03/10 00:22:21;;;;;;;2.83;2.43;;;22.40;57.30;;;;;;5080781;28;20962;-82
2024/03/10 00:24:49;;;;;;;2.93;2.60;;;22.40;57.30;;;;;;5074136;28;20436;-82
2024/03/10 00:27:16;;;;;;;3.20;2.60;;;22.40;57.40;;;;;;5073714;28;20428;-83
2024/03/10 00:29:43;;;;;;;3.00;2.70;;;22.30;57.40;;;;;;5073730;28;20437;-83
2024/03/10 00:32:10;;;;;;;5.93;2.50;;;22.30;57.30;;;;;;5073906;28;20447;-83
2024/03/10 00:34:37;;;;;;;2.57;2.37;;;22.30;57.40;;;;;;5074102;28;20541;-90
2024/03/10 00:37:05;;;;;;;3.20;2.70;;;22.30;57.40;;;;;;5073701;28;20452;-83
2024/03/10 00:39:32;;;;;;;4.60;2.90;;;22.30;57.40;;;;;;5073048;28;20460;-83
2024/03/10 00:41:59;;;;;;;2.63;2.30;;;22.30;57.30;;;;;;5073743;28;20439;-82
2024/03/10 00:44:26;;;;;;;2.80;2.30;;;22.30;57.40;;;;;;5073724;28;20468;-85
2024/03/10 00:46:52;;;;;;;3.60;2.73;;;22.30;57.30;;;;;;5073823;28;20832;-83
2024/03/10 00:49:19;;;;;;;3.33;3.03;;;22.30;57.30;;;;;;5073768;28;20444;-90
2024/03/10 00:51:46;;;;;;;3.63;3.07;;;22.30;57.30;;;;;;5073932;28;20436;-82
2024/03/10 00:54:14;;;;;;;2.60;2.13;;;22.30;57.30;;;;;;5073408;28;20476;-83
2024/03/10 00:56:41;;;;;;;2.80;2.50;;;22.30;57.30;;;;;;5073950;28;20445;-83
2024/03/10 00:59:08;;;;;;;4.50;3.13;;;22.30;57.30;;;;;;5073952;28;20859;-83
2024/03/10 01:01:35;;;;;;;3.27;2.80;;;22.30;57.20;;;;;;5073839;28;20432;-83
2024/03/10 01:04:03;;;;;;;3.03;2.73;;;22.30;57.20;;;;;;5073691;28;20808;-83
2024/03/10 01:06:30;;;;;;;2.63;2.40;;;22.30;57.20;;;;;;5073355;28;20436;-83
2024/03/10 01:08:56;;;;;;;3.13;2.70;;;22.30;57.30;;;;;;5073585;28;20772;-83
2024/03/10 01:11:24;;;;;;;2.50;2.10;;;22.30;57.30;;;;;;5073174;28;20453;-83
2024/03/10 01:13:51;;;;;;;2.93;2.53;;;22.30;57.30;;;;;;5073263;28;20484;-82
2024/03/10 01:16:18;;;;;;;3.27;2.70;;;22.30;57.30;;;;;;5072987;28;20479;-83
2024/03/10 01:18:45;;;;;;;3.10;2.30;;;22.30;57.20;;;;;;5073289;28;20441;-83
2024/03/10 01:21:12;;;;;;;3.10;2.43;;;22.30;57.20;;;;;;5073408;28;20849;-83
2024/03/10 01:23:39;;;;;;;2.60;2.40;;;22.30;57.30;;;;;;5073312;28;20443;-83
2024/03/10 01:26:06;;;;;;;2.30;2.07;;;22.30;57.30;;;;;;5073144;28;20470;-83
2024/03/10 01:28:34;;;;;;;2.80;2.23;;;22.30;57.30;;;;;;5072022;28;20445;-82
2024/03/10 01:31:01;;;;;;;3.20;2.90;;;22.30;57.30;;;;;;5073273;28;20478;-83
2024/03/10 01:33:27;;;;;;;2.60;2.37;;;22.20;57.20;;;;;;5081090;28;20448;-79
2024/03/10 01:35:54;;;;;;;2.90;2.60;;;22.20;57.20;;;;;;5085505;28;20456;-82
2024/03/10 01:38:21;;;;;;;2.70;2.33;;;22.20;57.20;;;;;;5083052;28;20441;-83
2024/03/10 01:40:47;;;;;;;2.90;2.53;;;22.20;57.20;;;;;;5073189;28;20486;-82
2024/03/10 01:43:14;;;;;;;3.27;2.40;;;22.20;57.20;;;;;;5073048;28;20432;-82
2024/03/10 01:45:42;;;;;;;2.50;2.30;;;22.20;57.20;;;;;;5073099;28;20436;-83
2024/03/10 01:48:10;;;;;;;3.03;2.60;;;22.20;57.20;;;;;;5073141;28;20428;-82
2024/03/10 01:50:37;;;;;;;3.13;2.53;;;22.20;57.20;;;;;;5073150;28;20432;-83
2024/03/10 01:53:04;;;;;;;2.93;2.30;;;22.20;57.10;;;;;;5073049;28;20957;-82
2024/03/10 01:55:31;;;;;;;3.43;2.60;;;22.20;57.20;;;;;;5072550;28;20480;-83
2024/03/10 01:57:58;;;;;;;3.77;2.50;;;22.20;57.20;;;;;;5073165;28;20437;-83
2024/03/10 02:00:26;;;;;;;2.40;2.17;;;22.20;57.20;;;;;;5073148;28;20447;-83
2024/03/10 02:02:54;;;;;;;3.30;2.50;;;22.20;57.20;;;;;;5073038;28;20444;-83
2024/03/10 02:05:24;;;;;;;2.93;2.30;;;22.20;57.20;;;;;;5072705;28;20435;-82
2024/03/10 02:07:51;;;;;;;2.90;2.60;;;22.20;57.20;;;;;;5072833;28;20511;-82
2024/03/10 02:10:18;;;;;;;3.17;2.70;;;22.20;57.20;;;;;;5072914;28;20460;-82
2024/03/10 02:12:46;;;;;;;2.57;2.30;;;22.20;57.20;;;;;;5072870;28;20433;-83
2024/03/10 02:15:12;;;;;;;2.63;2.33;;;22.20;57.10;;;;;;5075525;28;20491;-82
2024/03/10 02:17:40;;;;;;;3.20;2.63;;;22.20;57.10;;;;;;5052921;28;20445;-82
2024/03/10 02:20:19;;;;;;;2.67;2.17;;;22.20;57.20;;;;;;5070663;28;20476;-82
2024/03/10 02:22:46;;;;;;;2.80;2.40;;;22.20;57.10;;;;;;5071909;28;20563;-84
2024/03/10 02:25:13;;;;;;;2.57;2.23;;;22.30;57.30;;;;;;5072292;28;20435;-82
2024/03/10 02:27:44;;;;;;;2.37;1.90;;;22.20;57.20;;;;;;5072339;28;20444;-81
2024/03/10 02:30:29;;;;;;;2.90;2.50;;;22.20;57.20;;;;;;5072387;28;20443;-82
2024/03/10 02:49:23;;;;;;;2.73;1.97;;;22.10;57.20;;;;;;5076387;28;20416;-81
2024/03/10 02:51:50;;;;;;;2.70;2.40;;;22.10;57.20;;;;;;5076192;28;20429;-87
2024/03/10 02:54:19;;;;;;;3.10;2.20;;;22.10;57.20;;;;;;5075667;28;20562;-81
2024/03/10 02:56:45;;;;;;;4.40;2.70;;;22.10;57.20;;;;;;5075858;28;20433;-89
2024/03/10 02:59:14;;;;;;;3.63;2.67;;;22.10;57.20;;;;;;5076028;28;20485;-88
2024/03/10 03:01:41;;;;;;;2.23;2.00;;;22.10;57.20;;;;;;5075898;28;20486;-88
2024/03/10 03:04:08;;;;;;;3.00;2.13;;;22.10;57.10;;;;;;5075657;28;20444;-87
2024/03/10 03:06:34;;;;;;;2.50;2.10;;;22.10;57.20;;;;;;5075794;28;20439;-81
2024/03/10 03:09:04;;;;;;;2.67;2.40;;;22.10;57.20;;;;;;5075949;28;20447;-83
2024/03/10 03:11:31;;;;;;;2.80;2.47;;;22.10;57.10;;;;;;5075528;28;20812;-82
2024/03/10 03:13:58;;;;;;;3.10;2.40;;;22.10;57.10;;;;;;5075323;28;20476;-82
2024/03/10 03:16:26;;;;;;;2.93;2.63;;;22.10;57.20;;;;;;5075500;28;20950;-89
2024/03/10 03:18:52;;;;;;;3.10;2.80;;;22.10;57.20;;;;;;5075464;28;20440;-86
2024/03/10 03:21:19;;;;;;;2.77;2.20;;;22.10;57.20;;;;;;5075303;28;20437;-85
2024/03/10 03:23:46;;;;;;;2.87;2.00;;;22.10;57.10;;;;;;5075521;28;20444;-82
2024/03/10 03:26:14;;;;;;;2.63;2.37;;;22.10;57.10;;;;;;5075406;28;20791;-85
2024/03/10 03:28:41;;;;;;;2.67;2.27;;;22.10;57.20;;;;;;5075279;28;20439;-82
2024/03/10 03:31:08;;;;;;;2.57;2.30;;;22.20;57.20;;;;;;5075063;28;20441;-81
2024/03/10 03:33:36;;;;;;;2.60;2.23;;;22.10;57.10;;;;;;5075140;28;20441;-82
2024/03/10 03:36:04;;;;;;;2.53;2.33;;;22.10;57.10;;;;;;5075128;28;20502;-84
2024/03/10 03:38:31;;;;;;;2.67;2.40;;;22.00;57.00;;;;;;5075549;28;20532;-87
2024/03/10 03:40:57;;;;;;;2.97;2.30;;;22.10;57.10;;;;;;5075336;28;20445;-91
2024/03/10 03:43:24;;;;;;;2.57;2.20;;;22.10;57.10;;;;;;5075016;28;20475;-82
2024/03/10 03:45:51;;;;;;;2.13;1.90;;;22.00;57.00;;;;;;5075295;28;20451;-81
2024/03/10 03:48:18;;;;;;;2.30;2.03;;;22.00;57.10;;;;;;5074922;28;20428;-88
2024/03/10 03:50:46;;;;;;;2.40;2.20;;;22.00;57.10;;;;;;5074156;28;20444;-82
2024/03/10 03:53:13;;;;;;;3.40;2.57;;;22.00;57.20;;;;;;5075175;28;20441;-89
2024/03/10 03:55:39;;;;;;;2.50;2.30;;;22.00;57.10;;;;;;5074740;28;20491;-82
2024/03/10 03:58:06;;;;;;;2.70;2.40;;;22.00;57.10;;;;;;5074906;28;20433;-88
2024/03/10 04:00:33;;;;;;;2.53;2.33;;;22.00;57.10;;;;;;5074856;28;20462;-82
2024/03/10 04:02:59;;;;;;;2.53;2.00;;;22.00;57.10;;;;;;5074593;28;20447;-89
2024/03/10 04:05:26;;;;;;;2.53;2.23;;;22.00;57.10;;;;;;5074695;28;20441;-90
2024/03/10 04:07:54;;;;;;;2.80;2.17;;;22.00;57.10;;;;;;5074552;28;20436;-82
2024/03/10 04:10:21;;;;;;;2.83;2.20;;;22.00;57.10;;;;;;5074317;28;20519;-82
2024/03/10 04:12:49;;;;;;;2.93;2.50;;;22.00;57.20;;;;;;5074482;28;20506;-82
2024/03/10 04:15:16;;;;;;;2.50;2.00;;;22.00;57.20;;;;;;5074517;28;20588;-89
2024/03/10 04:17:46;;;;;;;2.63;2.43;;;22.00;57.10;;;;;;5074510;28;20490;-82
2024/03/10 04:20:13;;;;;;;2.87;2.57;;;22.00;57.10;;;;;;5074570;28;20444;-82
2024/03/10 04:22:40;;;;;;;2.43;2.23;;;22.00;57.10;;;;;;5074489;28;20436;-82
2024/03/10 04:25:09;;;;;;;2.63;2.40;;;22.00;57.10;;;;;;5074242;28;20440;-82
2024/03/10 04:27:36;;;;;;;2.70;1.90;;;22.00;57.10;;;;;;5074153;28;20437;-81
2024/03/10 04:30:04;;;;;;;2.83;2.53;;;22.00;57.10;;;;;;5073945;28;20952;-83
2024/03/10 04:32:31;;;;;;;2.30;2.10;;;22.00;57.10;;;;;;5074134;28;20437;-83
2024/03/10 04:34:58;;;;;;;2.73;2.30;;;22.00;57.10;;;;;;5073872;28;20576;-83
2024/03/10 04:37:27;;;;;;;3.00;2.33;;;22.00;57.10;;;;;;5074104;28;20530;-83
2024/03/10 04:39:53;;;;;;;3.00;2.70;;;22.00;57.10;;;;;;5073926;28;20456;-82
2024/03/10 04:42:23;;;;;;;3.97;2.60;;;22.00;57.10;;;;;;5077990;28;20437;-82
2024/03/10 04:44:50;;;;;;;2.57;2.33;;;22.00;57.10;;;;;;5084907;28;20482;-82
2024/03/10 04:47:17;;;;;;;3.20;2.43;;;22.00;57.10;;;;;;5084609;28;20441;-82
2024/03/10 04:49:43;;;;;;;2.70;2.30;;;21.90;57.00;;;;;;5089267;28;20421;-81
2024/03/10 04:52:10;;;;;;;3.03;2.43;;;22.00;57.00;;;;;;5090658;28;20439;-83
2024/03/10 04:54:38;;;;;;;2.50;2.30;;;22.00;57.10;;;;;;5089593;28;20500;-85
2024/03/10 04:57:05;;;;;;;2.60;2.40;;;22.00;57.10;;;;;;5078675;28;20437;-90
2024/03/10 04:59:35;;;;;;;2.97;2.50;;;21.90;57.00;;;;;;5073847;28;20433;-82
2024/03/10 05:02:02;;;;;;;2.30;2.10;;;21.90;57.00;;;;;;5073474;28;20433;-89
2024/03/10 05:04:28;;;;;;;2.53;2.30;;;21.90;57.00;;;;;;5073663;28;20547;-82
2024/03/10 05:06:56;;;;;;;2.57;2.33;;;21.90;57.00;;;;;;5073798;28;20950;-83
2024/03/10 05:09:22;;;;;;;2.67;2.17;;;21.90;57.00;;;;;;5073527;28;20518;-83
2024/03/10 05:11:49;;;;;;;3.63;2.93;;;21.90;57.00;;;;;;5073765;28;20517;-86
2024/03/10 05:14:16;;;;;;;2.87;2.57;;;21.90;57.00;;;;;;5073319;28;20437;-87
2024/03/10 05:16:44;;;;;;;2.50;2.30;;;21.90;57.00;;;;;;5073748;28;20446;-90
2024/03/10 05:19:11;;;;;;;2.77;2.50;;;21.90;57.00;;;;;;5073544;28;20494;-82
2024/03/10 05:21:38;;;;;;;3.10;2.50;;;21.90;57.00;;;;;;5073519;28;20433;-83
2024/03/10 05:24:06;;;;;;;3.17;2.60;;;21.90;57.00;;;;;;5073670;28;20433;-90
2024/03/10 05:26:33;;;;;;;2.37;1.83;;;21.90;56.90;;;;;;5073372;28;20428;-83
2024/03/10 05:29:00;;;;;;;2.47;2.17;;;21.90;56.90;;;;;;5073347;28;20436;-83
2024/03/10 05:31:28;;;;;;;2.60;2.20;;;21.90;57.00;;;;;;5073271;28;20432;-86
2024/03/10 05:33:57;;;;;;;2.97;2.67;;;21.90;57.00;;;;;;5072990;28;20451;-83
2024/03/10 05:36:24;;;;;;;3.03;2.37;;;21.90;57.00;;;;;;5073088;28;20843;-82
2024/03/10 05:38:51;;;;;;;2.90;2.40;;;21.90;57.00;;;;;;5072972;28;20432;-83
2024/03/10 05:41:18;;;;;;;2.47;2.27;;;21.90;57.00;;;;;;5072941;28;20460;-82
2024/03/10 05:43:45;;;;;;;3.20;2.70;;;21.90;56.90;;;;;;5072979;28;20475;-82
2024/03/10 05:46:13;;;;;;;2.93;2.47;;;21.90;57.00;;;;;;5072957;28;20444;-82
2024/03/10 05:48:41;;;;;;;2.60;2.37;;;21.90;57.00;;;;;;5073162;28;20443;-82
2024/03/10 05:51:10;;;;;;;2.40;2.20;;;21.90;57.00;;;;;;5073508;28;20445;-83
2024/03/10 05:53:37;;;;;;;3.40;2.47;;;21.90;57.00;;;;;;5073320;28;20436;-83
2024/03/10 05:56:07;;;;;;;2.87;2.50;;;21.90;57.00;;;;;;5073083;28;20487;-89
2024/03/10 05:58:34;;;;;;;3.20;2.80;;;21.80;56.90;;;;;;5073543;28;20443;-86
2024/03/10 06:01:01;;;;;;;2.60;2.33;;;21.80;56.90;;;;;;5073602;28;21019;-89
2024/03/10 06:03:28;;;;;;;2.63;2.43;;;21.80;56.90;;;;;;5073405;28;20437;-88
2024/03/10 06:05:55;;;;;;;2.63;2.33;;;21.80;56.90;;;;;;5073121;28;20794;-84
2024/03/10 06:08:23;;;;;;;2.90;2.13;;;21.80;56.90;;;;;;5073426;28;20439;-88
2024/03/10 06:10:51;;;;;;;2.30;2.10;;;21.80;56.90;;;;;;5073003;28;20468;-88
2024/03/10 06:13:18;;;;;;;2.50;2.20;;;21.80;57.00;;;;;;5072942;28;20443;-81
2024/03/10 06:15:45;;;;;;;2.80;2.10;;;21.90;57.00;;;;;;5080903;28;20490;-81
2024/03/10 06:18:21;;;;;;;2.47;2.27;;;21.80;56.90;;;;;;5089651;28;20452;-82
2024/03/10 06:26:14;;;;;;;2.80;2.50;;;21.80;56.90;;;;;;5075733;28;20943;-88
2024/03/10 06:28:41;;;;;;;2.53;2.33;;;21.80;57.00;;;;;;5076564;28;20443;-83
2024/03/10 06:31:08;;;;;;;3.10;2.47;;;21.80;56.90;;;;;;5076681;28;20538;-85
2024/03/10 06:33:35;;;;;;;3.07;2.37;;;21.80;57.00;;;;;;5076489;28;20772;-89
2024/03/10 06:36:04;;;;;;;2.40;2.10;;;21.80;56.90;;;;;;5076197;28;20492;-83
2024/03/10 06:38:32;;;;;;;3.10;2.10;;;21.80;56.90;;;;;;5076263;28;20444;-83
2024/03/10 06:40:59;;;;;;;3.30;2.30;;;21.80;56.90;;;;;;5076167;28;20456;-89
2024/03/10 06:43:26;;;;;;;2.93;2.63;;;21.80;56.90;;;;;;5076260;28;20467;-89
2024/03/10 06:45:53;;;;;;;2.60;2.00;;;21.80;56.90;;;;;;5076393;28;20440;-90
2024/03/10 06:48:21;;;;;;;4.60;2.10;;;21.80;57.00;;;;;;5076371;28;20444;-86
2024/03/10 06:50:47;;;;;;;2.73;2.30;;;21.80;57.00;;;;;;5076230;28;20441;-83
2024/03/10 06:53:14;;;;;;;2.90;2.60;;;21.80;57.00;;;;;;5076367;28;20439;-83
2024/03/10 06:55:42;;;;;;;2.80;2.40;;;21.90;57.00;;;;;;5076150;28;20484;-85
2024/03/10 06:58:10;;;;;;;2.80;2.50;;;21.80;56.90;;;;;;5076324;28;20475;-89
2024/03/10 07:00:39;;;;;;;3.07;2.30;;;21.70;56.90;;;;;;5076202;28;20444;-87
2024/03/10 07:03:07;;;;;;;2.63;2.27;;;21.80;56.90;;;;;;5057674;28;20447;-89
2024/03/10 07:05:34;;;;;;;2.43;2.23;;;21.80;57.00;;;;;;5076137;28;20443;-88
2024/03/10 07:08:00;;;;;;;2.70;2.50;;;21.80;57.00;;;;;;5075975;28;20455;-82
2024/03/10 07:10:27;;;;;;;3.03;2.60;;;21.70;56.90;;;;;;5075771;28;20460;-82
2024/03/10 07:12:55;;;;;;;2.37;2.13;;;21.70;57.00;;;;;;5075900;28;20436;-82
2024/03/10 07:15:22;;;;;;;2.33;2.13;;;21.70;57.00;;;;;;5075853;28;20839;-88
2024/03/10 07:17:49;;;;;;;4.00;2.63;;;21.80;57.00;;;;;;5077435;28;20498;-87
2024/03/10 07:20:16;;;;;;;8.83;3.00;;;21.80;57.00;;;;;;5076563;28;20451;-82
2024/03/10 07:22:43;;;;;;;3.80;2.60;;;21.70;55.90;;;;;;5075717;28;20443;-89
2024/03/10 07:25:10;;;;;;;2.63;2.10;;;21.80;56.50;;;;;;5075413;28;20801;-82
2024/03/10 07:27:37;;;;;;;2.90;2.60;;;21.70;56.70;;;;;;5075690;28;20494;-82
2024/03/10 07:30:09;;;;;;;4.03;2.27;;;21.70;57.00;;;;;;5075621;28;20915;-82
2024/03/10 07:32:36;;;;;;;3.37;2.77;;;21.70;57.00;;;;;;5075582;28;20435;-82
2024/03/10 07:35:04;;;;;;;3.67;2.67;;;21.80;57.10;;;;;;5075528;28;20439;-83
2024/03/10 07:37:31;;;;;;;2.87;2.57;;;21.70;57.00;;;;;;5075532;28;20884;-82
2024/03/10 07:39:58;;;;;;;2.90;2.47;;;21.70;57.10;;;;;;5075387;28;20456;-82
2024/03/10 07:42:25;;;;;;;2.70;2.23;;;21.70;57.10;;;;;;5075116;28;20440;-82
2024/03/10 07:44:52;;;;;;;3.23;2.83;;;21.70;57.20;;;;;;5075074;28;20978;-82
2024/03/10 07:47:21;;;;;;;3.83;2.50;;;21.70;57.30;;;;;;5075458;28;20436;-81
2024/03/10 07:49:48;;;;;;;2.90;2.30;;;21.70;57.30;;;;;;5075270;28;20943;-89
2024/03/10 07:52:15;;;;;;;3.40;2.70;;;21.70;57.50;;;;;;5075291;28;20440;-82
2024/03/10 07:54:42;;;;;;;3.27;2.43;;;21.70;57.50;;;;;;5074864;28;20432;-81
2024/03/10 07:57:09;;;;;;;4.30;2.73;;;21.70;57.50;;;;;;5075379;28;20488;-82
2024/03/10 07:59:36;;;;;;;4.30;2.90;;;21.70;57.60;;;;;;5075219;28;20451;-82
2024/03/10 08:02:03;;;;;;;4.10;3.10;;;21.70;57.60;;;;;;5074804;28;20951;-81
2024/03/10 08:04:31;;;;;;;5.10;2.67;;;21.70;57.70;;;;;;5075033;28;20770;-81
2024/03/10 08:06:59;;;;;;;3.80;2.87;;;21.80;57.70;;;;;;5074570;28;20448;-81
2024/03/10 08:09:26;;;;;;;4.17;2.73;;;21.70;57.70;;;;;;5081660;28;20960;-79
2024/03/10 08:11:53;;;;;;;10.97;2.83;;;21.70;57.70;;;;;;5086830;28;20429;-82
2024/03/10 08:14:21;;;;;;;3.83;2.20;;;21.70;57.60;;;;;;5091538;28;20429;-83
2024/03/10 08:16:48;;;;;;;3.90;2.97;;;21.70;57.60;;;;;;5074641;28;20842;-82
2024/03/10 08:19:14;;;;;;;5.97;2.67;;;21.70;57.60;;;;;;5074533;28;20432;-82
2024/03/10 08:21:43;;;;;;;4.03;3.30;;;21.70;57.60;;;;;;5074287;28;20436;-82
2024/03/10 08:24:09;;;;;;;3.10;2.40;;;21.70;57.50;;;;;;5074373;28;20432;-82
2024/03/10 08:26:36;;;;;;;3.30;2.60;;;21.70;57.70;;;;;;5074333;28;20441;-82
2024/03/10 08:29:03;;;;;;;4.40;3.20;;;21.70;57.70;;;;;;5074298;28;20943;-82
2024/03/10 08:31:30;;;;;;;3.40;3.10;;;21.70;57.70;;;;;;5074230;28;20429;-87
2024/03/10 08:33:57;;;;;;;2.83;2.60;;;21.70;57.60;;;;;;5074153;28;20498;-82
2024/03/10 08:36:24;;;;;;;4.57;2.80;;;21.70;57.50;;;;;;5073940;28;20817;-83
2024/03/10 08:38:52;;;;;;;6.27;3.23;;;21.70;57.70;;;;;;5073800;28;20439;-82
2024/03/10 08:41:18;;;;;;;6.07;2.67;;;21.70;57.70;;;;;;5073953;28;20441;-82
2024/03/10 08:43:45;;;;;;;5.73;3.30;;;21.70;57.70;;;;;;5073769;28;20797;-83
2024/03/10 08:46:12;;;;;;;5.73;2.57;;;21.70;57.70;;;;;;5074127;28;20432;-82
2024/03/10 08:48:39;;;;;;;6.80;3.27;;;21.70;57.80;;;;;;5073896;28;20428;-86
2024/03/10 08:51:06;;;;;;;3.70;2.77;;;21.70;57.50;;;;;;5074132;28;20440;-82
2024/03/10 08:53:33;;;;;;;8.17;3.40;;;21.70;57.70;;;;;;5073831;28;20440;-82
2024/03/10 08:56:01;;;;;;;4.00;3.50;;;21.70;57.80;;;;;;5073730;28;20845;-79
2024/03/10 08:58:28;;;;;;;5.33;3.47;;;21.70;57.80;;;;;;5073899;28;20436;-80
2024/03/10 09:00:55;;;;;;;6.63;3.33;;;21.70;57.70;;;;;;5073613;28;20480;-81
2024/03/10 09:03:23;;;;;;;4.90;3.10;;;21.70;57.50;;;;;;5070785;28;20444;-81
2024/03/10 09:05:51;;;;;;;4.50;3.23;;;21.70;57.10;;;;;;5073778;28;20452;-81
2024/03/10 09:08:17;;;;;;;5.57;3.83;;;21.70;57.10;;;;;;5078258;28;20478;-81
2024/03/10 09:10:44;;;;;;;4.00;3.30;;;21.70;57.40;;;;;;5081234;28;20464;-80
2024/03/10 09:13:13;;;;;;;7.90;3.10;;;21.70;57.80;;;;;;5089314;28;20456;-82
2024/03/10 09:15:40;;;;;;;7.23;3.60;;;21.70;58.00;;;;;;5082371;28;20448;-83
2024/03/10 09:18:07;;;;;;;5.00;3.13;;;21.70;58.00;;;;;;5074289;28;20440;-82
2024/03/10 09:20:34;;;;;;;8.37;3.20;;;21.70;58.00;;;;;;5074582;28;20440;-82
2024/03/10 09:23:01;;;;;;;7.80;3.50;;;21.80;58.20;;;;;;5073756;28;20445;-87
2024/03/10 09:25:30;;;;;;;4.37;2.90;;;21.70;58.10;;;;;;5073404;28;20439;-83
2024/03/10 09:27:57;;;;;;;7.03;3.00;;;21.70;58.00;;;;;;5072956;28;20444;-84
2024/03/10 09:30:28;;;;;;;3.20;2.83;;;21.70;58.10;;;;;;5072315;28;20505;-82
2024/03/10 09:32:55;;;;;;;5.50;3.13;;;21.80;58.20;;;;;;5072694;28;20615;-83
2024/03/10 09:35:24;;;;;;;3.10;2.80;;;21.80;58.10;;;;;;5072521;28;20443;-87
2024/03/10 09:37:51;;;;;;;6.00;3.10;;;21.80;58.20;;;;;;5072387;28;20488;-83
2024/03/10 09:40:25;;;;;;;4.30;2.83;;;21.80;58.20;;;;;;5072689;28;20456;-82
2024/03/10 09:42:52;;;;;;;3.60;2.90;;;21.80;58.10;;;;;;5073099;28;20444;-84
2024/03/10 09:45:21;;;;;;;5.40;3.67;;;21.80;58.20;;;;;;5072743;28;20468;-83
2024/03/10 09:47:49;;;;;;;4.43;3.30;;;21.80;58.80;;;;;;5072890;28;20927;-83
2024/03/10 09:50:22;;;;;;;3.70;3.33;;;21.90;58.20;;;;;;5076515;28;20436;-83
2024/03/10 09:52:52;;;;;;;4.27;3.20;;;21.90;58.40;;;;;;5077464;28;20445;-83
2024/03/10 09:55:20;;;;;;;5.70;3.27;;;21.90;58.40;;;;;;5077738;28;20458;-84
2024/03/10 09:57:50;;;;;;;3.63;2.83;;;22.00;58.50;;;;;;5077676;28;20566;-83
2024/03/10 10:00:18;;;;;;;3.53;3.00;;;22.10;58.40;;;;;;5077711;28;20957;-83
2024/03/10 10:02:45;;;;;;;5.00;3.20;;;22.10;58.30;;;;;;5077330;28;20436;-84
2024/03/10 10:05:24;;;;;;;3.70;3.10;;;22.10;58.30;;;;;;5077228;28;20772;-90
2024/03/10 10:07:52;;;;;;;3.13;2.83;;;22.20;58.30;;;;;;5077591;28;20854;-83
2024/03/10 10:10:20;;;;;;;2.90;2.60;;;22.20;58.30;;;;;;5077062;28;20535;-83
2024/03/10 10:12:47;;;;;;;5.30;3.60;;;22.20;58.30;;;;;;5076931;28;20536;-90
2024/03/10 10:15:17;;;;;;;9.10;3.37;;;22.40;58.50;;;;;;5077029;28;20432;-83
2024/03/10 10:17:53;;;;;;;4.53;3.17;;;22.40;58.50;;;;;;5077263;28;20492;-83
2024/03/10 10:20:25;;;;;;;5.30;3.07;;;22.50;58.50;;;;;;5076818;28;20912;-90
2024/03/10 10:22:53;;;;;;;5.50;3.43;;;22.40;58.40;;;;;;5077117;28;20447;-83
2024/03/10 10:25:22;;;;;;;5.50;3.70;;;22.40;58.40;;;;;;5076955;28;20440;-90
2024/03/10 10:27:49;;;;;;;5.50;3.13;;;22.60;58.60;;;;;;5077072;28;20444;-84
2024/03/10 10:30:22;;;;;;;3.80;3.40;;;22.50;58.50;;;;;;5076865;28;20444;-83
2024/03/10 10:32:50;;;;;;;4.60;3.00;;;22.60;58.70;;;;;;5076607;28;20517;-86
2024/03/10 10:35:17;;;;;;;2.73;2.40;;;22.60;58.60;;;;;;5076761;28;20440;-83
2024/03/10 10:37:46;;;;;;;3.63;2.93;;;22.70;59.30;;;;;;5076498;28;20491;-84
2024/03/10 10:40:14;;;;;;;3.50;2.90;;;22.70;58.60;;;;;;5076336;28;20460;-83
2024/03/10 10:42:41;;;;;;;4.23;3.23;;;22.70;58.60;;;;;;5076981;28;20812;-83
2024/03/10 10:45:09;;;;;;;3.50;2.90;;;22.80;58.70;;;;;;5076485;28;20472;-84
2024/03/10 10:47:37;;;;;;;5.33;3.07;;;22.80;58.70;;;;;;5076556;28;20444;-83
2024/03/10 10:50:14;;;;;;;5.53;3.67;;;22.80;58.60;;;;;;5076847;28;20441;-83
2024/03/10 10:52:46;;;;;;;3.43;2.90;;;22.80;58.70;;;;;;5076183;28;20447;-82
2024/03/10 10:55:15;;;;;;;4.20;3.20;;;22.90;58.70;;;;;;5076175;28;20847;-84
2024/03/10 10:57:44;;;;;;;3.43;2.97;;;22.80;58.60;;;;;;5076744;28;20475;-83
2024/03/10 11:00:26;;;;;;;3.37;2.93;;;22.90;58.70;;;;;;5075892;28;20968;-89
2024/03/10 11:03:06;;;;;;;3.90;3.37;;;22.90;58.70;;;;;;5075998;28;20467;-83
2024/03/10 11:05:33;;;;;;;4.37;3.30;;;22.90;58.80;;;;;;5076305;28;20431;-83
2024/03/10 11:08:04;;;;;;;3.63;3.33;;;22.90;58.70;;;;;;5076152;28;20439;-83
2024/03/10 11:10:43;;;;;;;3.10;2.73;;;22.90;58.70;;;;;;5076058;28;20801;-83
2024/03/10 11:13:11;;;;;;;3.20;2.90;;;22.90;58.80;;;;;;5075912;28;20442;-83
2024/03/10 11:15:38;;;;;;;5.00;3.27;;;22.90;58.70;;;;;;5076035;28;20464;-83
2024/03/10 11:18:21;;;;;;;3.73;2.60;;;23.00;58.80;;;;;;5075968;28;20488;-82
2024/03/10 11:20:48;;;;;;;3.90;3.00;;;22.90;58.90;;;;;;5076242;28;20511;-86
2024/03/10 11:23:23;;;;;;;3.80;3.30;;;23.00;58.90;;;;;;5075414;28;21157;-83
2024/03/10 11:25:51;;;;;;;3.97;3.57;;;23.00;58.90;;;;;;5078716;28;20435;-81
2024/03/10 11:28:21;;;;;;;3.60;2.87;;;22.90;58.90;;;;;;5096808;28;20458;-83
2024/03/10 11:30:49;;;;;;;3.70;3.30;;;23.10;59.00;;;;;;5099062;28;20458;-83
2024/03/10 11:33:22;;;;;;;2.80;2.30;;;23.00;58.90;;;;;;5077618;28;20452;-83
2024/03/10 11:35:51;;;;;;;3.30;2.90;;;23.00;59.00;;;;;;5075615;28;20467;-88
2024/03/10 11:38:20;;;;;;;3.03;2.70;;;23.00;59.00;;;;;;5075476;28;20484;-83
2024/03/10 11:40:55;;;;;;;3.50;3.20;;;23.00;59.00;;;;;;5075397;28;20539;-83
2024/03/10 11:43:22;;;;;;;3.43;3.10;;;23.10;59.10;;;;;;5075556;28;20464;-85
2024/03/10 11:45:51;;;;;;;3.73;3.33;;;23.20;59.10;;;;;;5075729;28;20440;-82
2024/03/10 11:48:18;;;;;;;4.30;3.43;;;23.10;59.00;;;;;;5075357;28;20494;-83
2024/03/10 11:50:44;;;;;;;4.00;3.20;;;23.10;59.00;;;;;;5075750;28;20527;-88
2024/03/10 11:53:12;;;;;;;4.00;3.40;;;23.10;59.00;;;;;;5075030;28;20443;-82
2024/03/10 11:55:41;;;;;;;3.53;3.23;;;23.20;59.10;;;;;;5075358;28;20482;-85
2024/03/10 11:58:09;;;;;;;3.47;2.77;;;23.20;59.00;;;;;;5075032;28;20516;-83
2024/03/10 12:00:37;;;;;;;4.20;3.00;;;23.20;59.00;;;;;;5075117;28;20440;-81
2024/03/10 12:03:05;;;;;;;3.40;2.97;;;23.20;59.00;;;;;;5076021;28;20448;-84
2024/03/10 12:05:33;;;;;;;4.10;3.20;;;23.20;59.60;;;;;;5075553;28;20463;-84
2024/03/10 12:08:00;;;;;;;4.03;3.40;;;23.20;59.00;;;;;;5075406;28;20795;-84
2024/03/10 12:10:28;;;;;;;3.37;3.07;;;23.30;59.00;;;;;;5074629;28;20467;-83
2024/03/10 12:12:57;;;;;;;3.60;2.60;;;23.20;58.90;;;;;;5073967;28;20999;-84
2024/03/10 12:15:28;;;;;;;3.80;3.20;;;23.20;58.90;;;;;;5074776;28;20440;-84
2024/03/10 12:17:55;;;;;;;3.63;3.30;;;23.20;58.90;;;;;;5075168;28;20477;-90
2024/03/10 12:20:22;;;;;;;3.57;3.27;;;23.20;58.80;;;;;;5074706;28;20938;-90
2024/03/10 12:22:49;;;;;;;4.03;3.30;;;23.20;58.80;;;;;;5074497;28;20481;-83
2024/03/10 12:25:18;;;;;;;4.93;3.60;;;23.20;58.80;;;;;;5074696;28;20428;-83
2024/03/10 12:27:47;;;;;;;4.20;3.10;;;23.20;58.80;;;;;;5074855;28;20448;-83
2024/03/10 12:30:19;;;;;;;3.43;2.93;;;23.20;58.80;;;;;;5074674;28;20794;-83
2024/03/10 12:32:48;;;;;;;3.87;3.47;;;23.20;58.90;;;;;;5074365;28;20490;-83
2024/03/10 12:35:14;;;;;;;3.00;2.73;;;23.30;58.80;;;;;;5074331;28;20842;-83
2024/03/10 12:37:42;;;;;;;3.63;3.00;;;23.30;58.70;;;;;;5074340;28;20484;-83
2024/03/10 12:40:14;;;;;;;3.40;3.10;;;23.30;58.60;;;;;;5074377;28;20860;-84
2024/03/10 12:42:43;;;;;;;3.60;3.30;;;23.30;58.60;;;;;;5074661;28;20436;-90
2024/03/10 12:45:11;;;;;;;3.70;2.87;;;23.30;58.60;;;;;;5074408;28;20526;-83
2024/03/10 12:47:40;;;;;;;3.90;3.47;;;23.30;58.60;;;;;;5074467;28;20436;-83
2024/03/10 12:50:08;;;;;;;3.70;3.10;;;23.30;58.50;;;;;;5074679;28;20440;-85
2024/03/10 12:52:35;;;;;;;3.93;3.23;;;23.30;58.50;;;;;;5074597;28;21034;-89
2024/03/10 12:55:02;;;;;;;3.03;2.73;;;23.30;58.60;;;;;;5074443;28;20892;-90
2024/03/10 12:57:29;;;;;;;3.73;3.43;;;23.30;58.50;;;;;;5074840;28;20561;-87
2024/03/10 12:59:56;;;;;;;3.87;3.03;;;23.40;58.70;;;;;;5074263;28;20628;-89
2024/03/10 13:02:23;;;;;;;3.77;3.37;;;23.30;58.60;;;;;;5074892;28;20954;-90
2024/03/10 13:04:51;;;;;;;3.50;3.20;;;23.20;58.60;;;;;;5074604;28;20519;-88
2024/03/10 13:07:18;;;;;;;3.70;3.40;;;23.20;59.20;;;;;;5075220;28;20437;-91
2024/03/10 13:09:45;;;;;;;4.33;3.77;;;23.20;58.70;;;;;;5075270;28;20934;-89
2024/03/10 13:12:12;;;;;;;4.40;4.00;;;23.20;58.80;;;;;;5074848;28;20432;-90